logo

United by the hobby
of model aircraft flying

Promoting safe
radio model flying

Sharing the experience
of RC flying

Dedicated to the sport of model aviation

Meeting
Venue

Third Monday Each Month
Crown Point Civic Center
101 S East Street
Crown Point, IN 46307

Read More

email:
[javascript protected email address]

View our events calendar

2021

Weather Conditions

Elev 730 ft    41.19°N  87.16°W

44.1 °F
220°
13 m/h
Wind Variable Wind from SW

Current Conditions

Pressure 29.72 in
Visibility 10 miles
Clouds Clear
Dew Point 39.9 °F
Humidity 85 %
Rainfall T1.0 in
 
METAR KVPZ 020656Z AUTO 22011KT 10SM CLR 07/04 A2972 RMK AO2 SLP066 T00670044

Forecast

INFORMATION PROVIDED BY THE INDIANA STATE FORECAST - NATIONAL WEATHER SERVICE
Sunrise & Sunset
December 2, 2021
7::0 AM

::21 PM
High 42 | Low 29°F
December 3, 2021
7::0 AM

::21 PM
High | Low °F
 

our gallery

View All